sensor_id;sensor_type;location;lat;lon;timestamp;P1;durP1;ratioP1;P2;durP2;ratioP2
16484;SDS011;8353;47.856;12.344;2023-03-31T00:00:34;2.70;;;2.10;;
16484;SDS011;8353;47.856;12.344;2023-03-31T00:03:21;4.20;;;3.40;;
16484;SDS011;8353;47.856;12.344;2023-03-31T00:06:08;2.33;;;2.03;;
16484;SDS011;8353;47.856;12.344;2023-03-31T00:09:03;2.70;;;2.07;;
16484;SDS011;8353;47.856;12.344;2023-03-31T00:11:50;3.00;;;2.63;;
16484;SDS011;8353;47.856;12.344;2023-03-31T00:14:38;2.23;;;2.07;;
16484;SDS011;8353;47.856;12.344;2023-03-31T00:17:25;2.33;;;2.13;;
16484;SDS011;8353;47.856;12.344;2023-03-31T00:20:12;2.30;;;2.10;;
16484;SDS011;8353;47.856;12.344;2023-03-31T00:22:58;2.20;;;2.00;;
16484;SDS011;8353;47.856;12.344;2023-03-31T00:25:47;3.20;;;2.70;;
16484;SDS011;8353;47.856;12.344;2023-03-31T00:28:34;2.90;;;2.70;;
16484;SDS011;8353;47.856;12.344;2023-03-31T00:31:21;2.33;;;2.10;;
16484;SDS011;8353;47.856;12.344;2023-03-31T00:34:08;3.73;;;2.90;;
16484;SDS011;8353;47.856;12.344;2023-03-31T00:36:55;2.67;;;2.13;;
16484;SDS011;8353;47.856;12.344;2023-03-31T00:39:46;2.73;;;2.47;;
16484;SDS011;8353;47.856;12.344;2023-03-31T00:42:34;2.13;;;1.93;;
16484;SDS011;8353;47.856;12.344;2023-03-31T00:45:26;3.20;;;2.53;;
16484;SDS011;8353;47.856;12.344;2023-03-31T00:48:15;1.73;;;1.63;;
16484;SDS011;8353;47.856;12.344;2023-03-31T00:51:04;5.73;;;3.50;;
16484;SDS011;8353;47.856;12.344;2023-03-31T00:53:53;2.27;;;2.07;;
16484;SDS011;8353;47.856;12.344;2023-03-31T00:56:44;3.20;;;2.60;;
16484;SDS011;8353;47.856;12.344;2023-03-31T00:59:36;4.30;;;3.90;;
16484;SDS011;8353;47.856;12.344;2023-03-31T01:02:26;4.70;;;3.07;;
16484;SDS011;8353;47.856;12.344;2023-03-31T01:05:13;2.87;;;2.63;;
16484;SDS011;8353;47.856;12.344;2023-03-31T01:08:00;3.43;;;2.90;;
16484;SDS011;8353;47.856;12.344;2023-03-31T01:10:51;3.73;;;2.70;;
16484;SDS011;8353;47.856;12.344;2023-03-31T01:13:39;2.40;;;2.20;;
16484;SDS011;8353;47.856;12.344;2023-03-31T01:16:28;1.83;;;1.63;;
16484;SDS011;8353;47.856;12.344;2023-03-31T01:19:19;2.43;;;2.20;;
16484;SDS011;8353;47.856;12.344;2023-03-31T01:25:44;3.17;;;2.60;;
16484;SDS011;8353;47.856;12.344;2023-03-31T01:28:58;2.77;;;1.97;;
16484;SDS011;8353;47.856;12.344;2023-03-31T01:32:20;3.07;;;2.67;;
16484;SDS011;8353;47.856;12.344;2023-03-31T01:35:33;3.43;;;2.10;;
16484;SDS011;8353;47.856;12.344;2023-03-31T01:38:57;2.80;;;2.60;;
16484;SDS011;8353;47.856;12.344;2023-03-31T01:42:18;4.17;;;2.83;;
16484;SDS011;8353;47.856;12.344;2023-03-31T01:45:15;3.87;;;2.60;;
16484;SDS011;8353;47.856;12.344;2023-03-31T01:48:12;2.53;;;2.27;;
16484;SDS011;8353;47.856;12.344;2023-03-31T01:51:03;2.20;;;1.97;;
16484;SDS011;8353;47.856;12.344;2023-03-31T01:53:57;3.90;;;2.57;;
16484;SDS011;8353;47.856;12.344;2023-03-31T01:56:50;3.47;;;2.23;;
16484;SDS011;8353;47.856;12.344;2023-03-31T01:59:45;2.70;;;2.47;;
16484;SDS011;8353;47.856;12.344;2023-03-31T02:02:38;3.00;;;2.70;;
16484;SDS011;8353;47.856;12.344;2023-03-31T02:05:29;2.30;;;2.03;;
16484;SDS011;8353;47.856;12.344;2023-03-31T02:08:21;2.67;;;1.80;;
16484;SDS011;8353;47.856;12.344;2023-03-31T02:11:11;4.17;;;2.67;;
16484;SDS011;8353;47.856;12.344;2023-03-31T02:13:59;2.03;;;1.80;;
16484;SDS011;8353;47.856;12.344;2023-03-31T02:16:51;4.03;;;2.10;;
16484;SDS011;8353;47.856;12.344;2023-03-31T02:19:43;2.33;;;2.13;;
16484;SDS011;8353;47.856;12.344;2023-03-31T02:22:34;3.70;;;2.50;;
16484;SDS011;8353;47.856;12.344;2023-03-31T02:25:25;5.57;;;3.30;;
16484;SDS011;8353;47.856;12.344;2023-03-31T02:28:17;2.93;;;1.80;;
16484;SDS011;8353;47.856;12.344;2023-03-31T02:31:08;2.90;;;2.40;;
16484;SDS011;8353;47.856;12.344;2023-03-31T02:34:07;2.60;;;2.00;;
16484;SDS011;8353;47.856;12.344;2023-03-31T02:36:55;2.80;;;2.20;;
16484;SDS011;8353;47.856;12.344;2023-03-31T02:39:42;4.67;;;2.30;;
16484;SDS011;8353;47.856;12.344;2023-03-31T02:42:32;4.57;;;2.70;;
16484;SDS011;8353;47.856;12.344;2023-03-31T02:48:27;3.23;;;2.07;;
16484;SDS011;8353;47.856;12.344;2023-03-31T02:51:41;2.10;;;1.97;;
16484;SDS011;8353;47.856;12.344;2023-03-31T02:54:49;3.27;;;1.93;;
16484;SDS011;8353;47.856;12.344;2023-03-31T02:58:04;2.53;;;2.00;;
16484;SDS011;8353;47.856;12.344;2023-03-31T03:01:10;3.37;;;2.87;;
16484;SDS011;8353;47.856;12.344;2023-03-31T03:04:09;2.53;;;2.33;;
16484;SDS011;8353;47.856;12.344;2023-03-31T03:07:13;3.03;;;2.40;;
16484;SDS011;8353;47.856;12.344;2023-03-31T03:10:08;2.83;;;2.40;;
16484;SDS011;8353;47.856;12.344;2023-03-31T03:13:00;3.40;;;2.37;;
16484;SDS011;8353;47.856;12.344;2023-03-31T03:15:55;1.80;;;1.70;;
16484;SDS011;8353;47.856;12.344;2023-03-31T03:18:51;2.57;;;1.80;;
16484;SDS011;8353;47.856;12.344;2023-03-31T03:21:42;3.73;;;3.33;;
16484;SDS011;8353;47.856;12.344;2023-03-31T03:24:31;2.30;;;2.10;;
16484;SDS011;8353;47.856;12.344;2023-03-31T03:27:18;2.47;;;2.27;;
16484;SDS011;8353;47.856;12.344;2023-03-31T03:30:07;2.67;;;2.00;;
16484;SDS011;8353;47.856;12.344;2023-03-31T03:32:57;3.47;;;1.97;;
16484;SDS011;8353;47.856;12.344;2023-03-31T03:35:44;1.97;;;1.80;;
16484;SDS011;8353;47.856;12.344;2023-03-31T03:38:31;2.33;;;1.60;;
16484;SDS011;8353;47.856;12.344;2023-03-31T03:41:19;2.33;;;2.13;;
16484;SDS011;8353;47.856;12.344;2023-03-31T03:44:06;3.50;;;2.97;;
16484;SDS011;8353;47.856;12.344;2023-03-31T03:46:52;4.27;;;2.90;;
16484;SDS011;8353;47.856;12.344;2023-03-31T03:49:39;2.23;;;2.00;;
16484;SDS011;8353;47.856;12.344;2023-03-31T03:52:26;5.20;;;2.90;;
16484;SDS011;8353;47.856;12.344;2023-03-31T03:55:13;1.87;;;1.77;;
16484;SDS011;8353;47.856;12.344;2023-03-31T03:58:03;2.40;;;2.20;;
16484;SDS011;8353;47.856;12.344;2023-03-31T04:00:52;2.83;;;2.00;;
16484;SDS011;8353;47.856;12.344;2023-03-31T04:03:38;2.77;;;2.03;;
16484;SDS011;8353;47.856;12.344;2023-03-31T04:06:25;2.30;;;2.00;;
16484;SDS011;8353;47.856;12.344;2023-03-31T04:09:12;2.73;;;2.10;;
16484;SDS011;8353;47.856;12.344;2023-03-31T04:11:59;4.13;;;2.03;;
16484;SDS011;8353;47.856;12.344;2023-03-31T04:14:47;6.00;;;3.40;;
16484;SDS011;8353;47.856;12.344;2023-03-31T04:17:34;4.03;;;2.23;;
16484;SDS011;8353;47.856;12.344;2023-03-31T04:20:21;5.50;;;3.13;;
16484;SDS011;8353;47.856;12.344;2023-03-31T04:23:11;2.10;;;1.90;;
16484;SDS011;8353;47.856;12.344;2023-03-31T04:25:59;2.93;;;2.10;;
16484;SDS011;8353;47.856;12.344;2023-03-31T04:28:46;5.33;;;3.17;;
16484;SDS011;8353;47.856;12.344;2023-03-31T04:31:36;5.57;;;3.30;;
16484;SDS011;8353;47.856;12.344;2023-03-31T04:34:26;4.97;;;3.27;;
16484;SDS011;8353;47.856;12.344;2023-03-31T04:37:19;6.40;;;3.47;;
16484;SDS011;8353;47.856;12.344;2023-03-31T04:40:07;2.57;;;2.07;;
16484;SDS011;8353;47.856;12.344;2023-03-31T04:42:54;6.30;;;3.63;;
16484;SDS011;8353;47.856;12.344;2023-03-31T04:45:41;3.93;;;3.50;;
16484;SDS011;8353;47.856;12.344;2023-03-31T04:48:29;2.50;;;2.30;;
16484;SDS011;8353;47.856;12.344;2023-03-31T04:51:17;5.43;;;3.17;;
16484;SDS011;8353;47.856;12.344;2023-03-31T04:54:05;6.13;;;4.63;;
16484;SDS011;8353;47.856;12.344;2023-03-31T04:56:52;4.20;;;2.87;;
16484;SDS011;8353;47.856;12.344;2023-03-31T04:59:38;3.83;;;3.10;;
16484;SDS011;8353;47.856;12.344;2023-03-31T05:02:25;2.90;;;2.40;;
16484;SDS011;8353;47.856;12.344;2023-03-31T05:05:14;3.30;;;3.00;;
16484;SDS011;8353;47.856;12.344;2023-03-31T05:08:01;3.10;;;2.63;;
16484;SDS011;8353;47.856;12.344;2023-03-31T05:10:48;5.20;;;3.93;;
16484;SDS011;8353;47.856;12.344;2023-03-31T05:13:35;3.80;;;2.37;;
16484;SDS011;8353;47.856;12.344;2023-03-31T05:16:22;4.83;;;3.23;;
16484;SDS011;8353;47.856;12.344;2023-03-31T05:19:08;4.77;;;4.27;;
16484;SDS011;8353;47.856;12.344;2023-03-31T05:21:56;4.73;;;3.90;;
16484;SDS011;8353;47.856;12.344;2023-03-31T05:24:46;3.80;;;2.63;;
16484;SDS011;8353;47.856;12.344;2023-03-31T05:27:33;4.50;;;3.57;;
16484;SDS011;8353;47.856;12.344;2023-03-31T05:30:21;3.83;;;2.93;;
16484;SDS011;8353;47.856;12.344;2023-03-31T05:33:10;11.50;;;6.93;;
16484;SDS011;8353;47.856;12.344;2023-03-31T05:35:56;8.57;;;6.60;;
16484;SDS011;8353;47.856;12.344;2023-03-31T05:38:46;6.63;;;5.83;;
16484;SDS011;8353;47.856;12.344;2023-03-31T05:41:33;8.33;;;7.30;;
16484;SDS011;8353;47.856;12.344;2023-03-31T05:44:20;9.17;;;7.33;;
16484;SDS011;8353;47.856;12.344;2023-03-31T05:47:09;10.00;;;8.50;;
16484;SDS011;8353;47.856;12.344;2023-03-31T05:49:56;7.80;;;6.40;;
16484;SDS011;8353;47.856;12.344;2023-03-31T05:52:43;4.60;;;3.53;;
16484;SDS011;8353;47.856;12.344;2023-03-31T05:55:31;4.67;;;3.00;;
16484;SDS011;8353;47.856;12.344;2023-03-31T05:58:21;10.50;;;7.03;;
16484;SDS011;8353;47.856;12.344;2023-03-31T06:01:08;10.33;;;7.07;;
16484;SDS011;8353;47.856;12.344;2023-03-31T06:03:56;6.10;;;4.70;;
16484;SDS011;8353;47.856;12.344;2023-03-31T06:06:43;8.87;;;6.00;;
16484;SDS011;8353;47.856;12.344;2023-03-31T06:09:31;6.03;;;4.77;;
16484;SDS011;8353;47.856;12.344;2023-03-31T06:12:20;6.03;;;5.43;;
16484;SDS011;8353;47.856;12.344;2023-03-31T06:15:07;7.10;;;4.17;;
16484;SDS011;8353;47.856;12.344;2023-03-31T06:17:54;4.97;;;4.10;;
16484;SDS011;8353;47.856;12.344;2023-03-31T06:20:41;5.87;;;4.13;;
16484;SDS011;8353;47.856;12.344;2023-03-31T06:23:27;4.40;;;4.00;;
16484;SDS011;8353;47.856;12.344;2023-03-31T06:26:15;6.87;;;3.30;;
16484;SDS011;8353;47.856;12.344;2023-03-31T06:29:04;4.53;;;3.27;;
16484;SDS011;8353;47.856;12.344;2023-03-31T06:31:52;5.40;;;4.90;;
16484;SDS011;8353;47.856;12.344;2023-03-31T06:34:38;6.60;;;4.40;;
16484;SDS011;8353;47.856;12.344;2023-03-31T06:37:25;4.57;;;3.67;;
16484;SDS011;8353;47.856;12.344;2023-03-31T06:40:12;3.90;;;2.90;;
16484;SDS011;8353;47.856;12.344;2023-03-31T06:43:01;5.13;;;3.70;;
16484;SDS011;8353;47.856;12.344;2023-03-31T06:45:52;4.25;;;3.80;;
16484;SDS011;8353;47.856;12.344;2023-03-31T06:48:40;4.32;;;3.90;;
16484;SDS011;8353;47.856;12.344;2023-03-31T06:51:26;3.95;;;3.55;;
16484;SDS011;8353;47.856;12.344;2023-03-31T06:54:13;4.22;;;3.00;;
16484;SDS011;8353;47.856;12.344;2023-03-31T06:57:02;3.80;;;3.40;;
16484;SDS011;8353;47.856;12.344;2023-03-31T06:59:48;3.72;;;3.30;;
16484;SDS011;8353;47.856;12.344;2023-03-31T07:02:36;3.78;;;3.35;;
16484;SDS011;8353;47.856;12.344;2023-03-31T07:05:23;3.40;;;3.10;;
16484;SDS011;8353;47.856;12.344;2023-03-31T07:08:15;4.63;;;3.77;;
16484;SDS011;8353;47.856;12.344;2023-03-31T07:11:02;3.57;;;3.20;;
16484;SDS011;8353;47.856;12.344;2023-03-31T07:13:49;3.17;;;2.93;;
16484;SDS011;8353;47.856;12.344;2023-03-31T07:16:36;4.33;;;3.20;;
16484;SDS011;8353;47.856;12.344;2023-03-31T07:19:24;4.63;;;3.30;;
16484;SDS011;8353;47.856;12.344;2023-03-31T07:22:13;4.50;;;3.33;;
16484;SDS011;8353;47.856;12.344;2023-03-31T07:25:00;3.37;;;3.07;;
16484;SDS011;8353;47.856;12.344;2023-03-31T07:27:47;3.37;;;2.80;;
16484;SDS011;8353;47.856;12.344;2023-03-31T07:30:34;3.13;;;2.80;;
16484;SDS011;8353;47.856;12.344;2023-03-31T07:33:20;3.57;;;2.97;;
16484;SDS011;8353;47.856;12.344;2023-03-31T07:36:10;4.57;;;3.23;;
16484;SDS011;8353;47.856;12.344;2023-03-31T07:38:57;4.37;;;3.30;;
16484;SDS011;8353;47.856;12.344;2023-03-31T07:41:46;5.07;;;3.73;;
16484;SDS011;8353;47.856;12.344;2023-03-31T07:44:33;4.40;;;3.73;;
16484;SDS011;8353;47.856;12.344;2023-03-31T07:47:21;4.10;;;3.30;;
16484;SDS011;8353;47.856;12.344;2023-03-31T07:50:08;4.60;;;3.40;;
16484;SDS011;8353;47.856;12.344;2023-03-31T07:52:59;3.30;;;3.00;;
16484;SDS011;8353;47.856;12.344;2023-03-31T07:55:47;4.57;;;3.63;;
16484;SDS011;8353;47.856;12.344;2023-03-31T07:58:35;4.10;;;2.87;;
16484;SDS011;8353;47.856;12.344;2023-03-31T08:01:21;4.03;;;3.10;;
16484;SDS011;8353;47.856;12.344;2023-03-31T08:04:10;4.03;;;3.47;;
16484;SDS011;8353;47.856;12.344;2023-03-31T08:07:00;3.63;;;2.63;;
16484;SDS011;8353;47.856;12.344;2023-03-31T08:09:48;5.17;;;3.50;;
16484;SDS011;8353;47.856;12.344;2023-03-31T08:12:40;4.30;;;3.30;;
16484;SDS011;8353;47.856;12.344;2023-03-31T08:15:27;5.43;;;3.67;;
16484;SDS011;8353;47.856;12.344;2023-03-31T08:18:21;5.30;;;4.00;;
16484;SDS011;8353;47.856;12.344;2023-03-31T08:21:09;5.53;;;4.03;;
16484;SDS011;8353;47.856;12.344;2023-03-31T08:23:56;3.83;;;3.40;;
16484;SDS011;8353;47.856;12.344;2023-03-31T08:26:44;4.73;;;4.00;;
16484;SDS011;8353;47.856;12.344;2023-03-31T08:29:32;3.87;;;3.23;;
16484;SDS011;8353;47.856;12.344;2023-03-31T08:32:20;4.20;;;3.67;;
16484;SDS011;8353;47.856;12.344;2023-03-31T08:35:08;4.97;;;4.43;;
16484;SDS011;8353;47.856;12.344;2023-03-31T08:37:55;6.83;;;4.87;;
16484;SDS011;8353;47.856;12.344;2023-03-31T08:40:42;4.23;;;3.80;;
16484;SDS011;8353;47.856;12.344;2023-03-31T08:43:30;5.03;;;4.07;;
16484;SDS011;8353;47.856;12.344;2023-03-31T08:46:24;4.50;;;3.80;;
16484;SDS011;8353;47.856;12.344;2023-03-31T08:49:15;6.57;;;4.00;;
16484;SDS011;8353;47.856;12.344;2023-03-31T08:52:05;5.83;;;4.50;;
16484;SDS011;8353;47.856;12.344;2023-03-31T08:54:58;6.90;;;4.10;;
16484;SDS011;8353;47.856;12.344;2023-03-31T08:57:53;4.67;;;3.87;;
16484;SDS011;8353;47.856;12.344;2023-03-31T09:00:48;6.60;;;4.50;;
16484;SDS011;8353;47.856;12.344;2023-03-31T09:03:40;5.93;;;4.00;;
16484;SDS011;8353;47.856;12.344;2023-03-31T09:06:34;5.10;;;3.80;;
16484;SDS011;8353;47.856;12.344;2023-03-31T09:09:24;3.80;;;3.50;;
16484;SDS011;8353;47.856;12.344;2023-03-31T09:12:24;5.40;;;4.90;;
16484;SDS011;8353;47.856;12.344;2023-03-31T09:15:21;4.97;;;4.07;;
16484;SDS011;8353;47.856;12.344;2023-03-31T09:18:16;4.13;;;3.40;;
16484;SDS011;8353;47.856;12.344;2023-03-31T09:21:13;3.80;;;3.50;;
16484;SDS011;8353;47.856;12.344;2023-03-31T09:24:05;4.80;;;3.53;;
16484;SDS011;8353;47.856;12.344;2023-03-31T09:26:57;6.47;;;4.07;;
16484;SDS011;8353;47.856;12.344;2023-03-31T09:29:47;4.37;;;3.57;;
16484;SDS011;8353;47.856;12.344;2023-03-31T09:32:37;6.93;;;3.67;;
16484;SDS011;8353;47.856;12.344;2023-03-31T09:35:26;4.17;;;3.70;;
16484;SDS011;8353;47.856;12.344;2023-03-31T09:38:17;3.90;;;3.57;;
16484;SDS011;8353;47.856;12.344;2023-03-31T09:41:09;4.47;;;3.40;;
16484;SDS011;8353;47.856;12.344;2023-03-31T09:43:57;3.67;;;3.13;;
16484;SDS011;8353;47.856;12.344;2023-03-31T09:46:44;5.20;;;3.53;;
16484;SDS011;8353;47.856;12.344;2023-03-31T09:49:31;3.60;;;2.87;;
16484;SDS011;8353;47.856;12.344;2023-03-31T09:52:24;7.20;;;6.50;;
16484;SDS011;8353;47.856;12.344;2023-03-31T09:55:17;4.20;;;3.20;;
16484;SDS011;8353;47.856;12.344;2023-03-31T09:58:10;4.10;;;3.03;;
16484;SDS011;8353;47.856;12.344;2023-03-31T10:00:59;4.83;;;3.77;;
16484;SDS011;8353;47.856;12.344;2023-03-31T10:03:50;3.83;;;3.43;;
16484;SDS011;8353;47.856;12.344;2023-03-31T10:06:39;3.60;;;3.30;;
16484;SDS011;8353;47.856;12.344;2023-03-31T10:09:31;3.73;;;3.33;;
16484;SDS011;8353;47.856;12.344;2023-03-31T10:12:24;4.73;;;3.30;;
16484;SDS011;8353;47.856;12.344;2023-03-31T10:15:16;3.50;;;3.20;;
16484;SDS011;8353;47.856;12.344;2023-03-31T10:18:05;4.30;;;3.70;;
16484;SDS011;8353;47.856;12.344;2023-03-31T10:20:58;4.40;;;3.20;;
16484;SDS011;8353;47.856;12.344;2023-03-31T10:23:47;3.83;;;3.53;;
16484;SDS011;8353;47.856;12.344;2023-03-31T10:26:38;3.50;;;2.97;;
16484;SDS011;8353;47.856;12.344;2023-03-31T10:29:28;3.70;;;3.40;;
16484;SDS011;8353;47.856;12.344;2023-03-31T10:32:17;4.07;;;3.28;;
16484;SDS011;8353;47.856;12.344;2023-03-31T10:35:12;4.57;;;3.23;;
16484;SDS011;8353;47.856;12.344;2023-03-31T10:38:07;4.40;;;3.60;;
16484;SDS011;8353;47.856;12.344;2023-03-31T10:41:01;5.05;;;3.90;;
16484;SDS011;8353;47.856;12.344;2023-03-31T10:43:50;4.18;;;3.78;;
16484;SDS011;8353;47.856;12.344;2023-03-31T10:46:45;4.13;;;3.40;;
16484;SDS011;8353;47.856;12.344;2023-03-31T10:49:36;4.23;;;3.60;;
16484;SDS011;8353;47.856;12.344;2023-03-31T10:52:25;3.50;;;3.20;;
16484;SDS011;8353;47.856;12.344;2023-03-31T10:55:17;4.70;;;3.97;;
16484;SDS011;8353;47.856;12.344;2023-03-31T10:58:16;4.07;;;3.67;;
16484;SDS011;8353;47.856;12.344;2023-03-31T11:01:17;4.32;;;3.90;;
16484;SDS011;8353;47.856;12.344;2023-03-31T11:04:30;4.30;;;3.90;;
16484;SDS011;8353;47.856;12.344;2023-03-31T11:07:37;5.07;;;4.05;;
16484;SDS011;8353;47.856;12.344;2023-03-31T11:10:44;3.90;;;3.60;;
16484;SDS011;8353;47.856;12.344;2023-03-31T11:13:39;3.87;;;3.50;;
16484;SDS011;8353;47.856;12.344;2023-03-31T11:16:36;4.20;;;3.80;;
16484;SDS011;8353;47.856;12.344;2023-03-31T11:19:32;5.70;;;4.32;;
16484;SDS011;8353;47.856;12.344;2023-03-31T11:22:29;5.77;;;3.87;;
16484;SDS011;8353;47.856;12.344;2023-03-31T11:25:26;3.87;;;3.47;;
16484;SDS011;8353;47.856;12.344;2023-03-31T11:28:25;3.37;;;3.07;;
16484;SDS011;8353;47.856;12.344;2023-03-31T11:31:36;3.83;;;3.40;;
16484;SDS011;8353;47.856;12.344;2023-03-31T11:34:39;4.00;;;3.60;;
16484;SDS011;8353;47.856;12.344;2023-03-31T11:37:41;4.67;;;3.87;;
16484;SDS011;8353;47.856;12.344;2023-03-31T11:40:44;4.07;;;3.60;;
16484;SDS011;8353;47.856;12.344;2023-03-31T11:43:41;5.00;;;3.43;;
16484;SDS011;8353;47.856;12.344;2023-03-31T11:46:34;4.63;;;3.67;;
16484;SDS011;8353;47.856;12.344;2023-03-31T11:49:27;3.50;;;3.00;;
16484;SDS011;8353;47.856;12.344;2023-03-31T11:52:17;3.60;;;3.20;;
16484;SDS011;8353;47.856;12.344;2023-03-31T11:55:06;3.83;;;3.17;;
16484;SDS011;8353;47.856;12.344;2023-03-31T11:58:01;2.97;;;2.63;;
16484;SDS011;8353;47.856;12.344;2023-03-31T12:00:55;4.73;;;3.13;;
16484;SDS011;8353;47.856;12.344;2023-03-31T12:03:53;2.87;;;2.60;;
16484;SDS011;8353;47.856;12.344;2023-03-31T12:06:44;3.97;;;3.57;;
16484;SDS011;8353;47.856;12.344;2023-03-31T12:09:34;3.77;;;3.33;;
16484;SDS011;8353;47.856;12.344;2023-03-31T12:12:27;3.97;;;3.10;;
16484;SDS011;8353;47.856;12.344;2023-03-31T12:15:20;2.47;;;2.23;;
16484;SDS011;8353;47.856;12.344;2023-03-31T12:18:11;3.50;;;2.90;;
16484;SDS011;8353;47.856;12.344;2023-03-31T12:21:02;2.77;;;2.43;;
16484;SDS011;8353;47.856;12.344;2023-03-31T12:23:51;3.10;;;2.70;;
16484;SDS011;8353;47.856;12.344;2023-03-31T12:26:39;2.77;;;2.03;;
16484;SDS011;8353;47.856;12.344;2023-03-31T12:29:33;2.17;;;1.93;;
16484;SDS011;8353;47.856;12.344;2023-03-31T12:32:23;2.47;;;1.73;;
16484;SDS011;8353;47.856;12.344;2023-03-31T12:35:13;1.83;;;1.63;;
16484;SDS011;8353;47.856;12.344;2023-03-31T12:38:16;2.30;;;1.93;;
16484;SDS011;8353;47.856;12.344;2023-03-31T12:41:13;2.03;;;1.70;;
16484;SDS011;8353;47.856;12.344;2023-03-31T12:44:11;2.20;;;2.00;;
16484;SDS011;8353;47.856;12.344;2023-03-31T12:47:21;3.67;;;2.43;;
16484;SDS011;8353;47.856;12.344;2023-03-31T12:50:25;2.67;;;2.30;;
16484;SDS011;8353;47.856;12.344;2023-03-31T12:53:23;2.93;;;2.07;;
16484;SDS011;8353;47.856;12.344;2023-03-31T12:56:20;3.40;;;2.63;;
16484;SDS011;8353;47.856;12.344;2023-03-31T12:59:16;2.20;;;1.80;;
16484;SDS011;8353;47.856;12.344;2023-03-31T13:02:19;2.80;;;2.10;;
16484;SDS011;8353;47.856;12.344;2023-03-31T13:08:49;5.60;;;3.33;;
16484;SDS011;8353;47.856;12.344;2023-03-31T13:11:38;3.93;;;2.80;;
16484;SDS011;8353;47.856;12.344;2023-03-31T13:14:29;2.60;;;2.10;;
16484;SDS011;8353;47.856;12.344;2023-03-31T13:17:24;2.50;;;2.10;;
16484;SDS011;8353;47.856;12.344;2023-03-31T13:20:14;2.30;;;2.10;;
16484;SDS011;8353;47.856;12.344;2023-03-31T13:23:15;2.93;;;2.20;;
16484;SDS011;8353;47.856;12.344;2023-03-31T13:26:18;2.87;;;2.07;;
16484;SDS011;8353;47.856;12.344;2023-03-31T13:29:38;3.50;;;3.20;;
16484;SDS011;8353;47.856;12.344;2023-03-31T13:32:27;2.87;;;2.53;;
16484;SDS011;8353;47.856;12.344;2023-03-31T13:35:15;2.90;;;2.60;;
16484;SDS011;8353;47.856;12.344;2023-03-31T13:38:07;2.70;;;2.40;;
16484;SDS011;8353;47.856;12.344;2023-03-31T13:41:06;2.40;;;1.97;;
16484;SDS011;8353;47.856;12.344;2023-03-31T13:44:12;2.73;;;2.50;;
16484;SDS011;8353;47.856;12.344;2023-03-31T13:50:45;3.60;;;2.00;;
16484;SDS011;8353;47.856;12.344;2023-03-31T13:54:02;4.50;;;2.03;;
16484;SDS011;8353;47.856;12.344;2023-03-31T13:57:28;1.80;;;1.40;;
16484;SDS011;8353;47.856;12.344;2023-03-31T14:00:41;2.43;;;1.63;;
16484;SDS011;8353;47.856;12.344;2023-03-31T14:03:44;1.30;;;1.20;;
16484;SDS011;8353;47.856;12.344;2023-03-31T14:06:40;2.50;;;1.37;;
16484;SDS011;8353;47.856;12.344;2023-03-31T14:09:33;1.87;;;1.43;;
16484;SDS011;8353;47.856;12.344;2023-03-31T14:12:21;3.53;;;1.60;;
16484;SDS011;8353;47.856;12.344;2023-03-31T14:15:17;3.53;;;1.50;;
16484;SDS011;8353;47.856;12.344;2023-03-31T14:18:09;1.80;;;1.30;;
16484;SDS011;8353;47.856;12.344;2023-03-31T14:21:03;1.20;;;1.10;;
16484;SDS011;8353;47.856;12.344;2023-03-31T14:24:03;1.70;;;1.50;;
16484;SDS011;8353;47.856;12.344;2023-03-31T14:27:03;2.33;;;1.07;;
16484;SDS011;8353;47.856;12.344;2023-03-31T14:29:59;1.90;;;1.03;;
16484;SDS011;8353;47.856;12.344;2023-03-31T14:32:55;1.60;;;1.50;;
16484;SDS011;8353;47.856;12.344;2023-03-31T14:35:54;2.00;;;1.07;;
16484;SDS011;8353;47.856;12.344;2023-03-31T14:38:45;2.37;;;1.30;;
16484;SDS011;8353;47.856;12.344;2023-03-31T14:41:34;2.63;;;1.70;;
16484;SDS011;8353;47.856;12.344;2023-03-31T14:44:22;2.17;;;1.87;;
16484;SDS011;8353;47.856;12.344;2023-03-31T14:47:15;1.53;;;1.40;;
16484;SDS011;8353;47.856;12.344;2023-03-31T14:50:10;2.33;;;1.70;;
16484;SDS011;8353;47.856;12.344;2023-03-31T14:52:59;1.60;;;1.50;;
16484;SDS011;8353;47.856;12.344;2023-03-31T14:55:49;2.00;;;1.60;;
16484;SDS011;8353;47.856;12.344;2023-03-31T14:58:39;2.00;;;1.77;;
16484;SDS011;8353;47.856;12.344;2023-03-31T15:01:28;2.00;;;1.50;;
16484;SDS011;8353;47.856;12.344;2023-03-31T15:04:21;1.50;;;1.40;;
16484;SDS011;8353;47.856;12.344;2023-03-31T15:07:10;1.20;;;1.10;;
16484;SDS011;8353;47.856;12.344;2023-03-31T15:09:58;3.20;;;1.50;;
16484;SDS011;8353;47.856;12.344;2023-03-31T15:12:45;1.50;;;1.30;;
16484;SDS011;8353;47.856;12.344;2023-03-31T15:15:33;2.53;;;1.40;;
16484;SDS011;8353;47.856;12.344;2023-03-31T15:18:20;3.23;;;1.23;;
16484;SDS011;8353;47.856;12.344;2023-03-31T15:21:09;2.47;;;1.40;;
16484;SDS011;8353;47.856;12.344;2023-03-31T15:24:35;3.07;;;1.67;;
16484;SDS011;8353;47.856;12.344;2023-03-31T15:27:29;2.20;;;1.30;;
16484;SDS011;8353;47.856;12.344;2023-03-31T15:30:20;1.60;;;1.20;;
16484;SDS011;8353;47.856;12.344;2023-03-31T15:33:14;2.93;;;1.30;;
16484;SDS011;8353;47.856;12.344;2023-03-31T15:36:04;2.50;;;1.10;;
16484;SDS011;8353;47.856;12.344;2023-03-31T15:38:55;1.70;;;1.30;;
16484;SDS011;8353;47.856;12.344;2023-03-31T15:41:45;1.80;;;1.33;;
16484;SDS011;8353;47.856;12.344;2023-03-31T15:44:37;2.13;;;1.37;;
16484;SDS011;8353;47.856;12.344;2023-03-31T15:47:28;1.40;;;1.30;;
16484;SDS011;8353;47.856;12.344;2023-03-31T15:50:15;2.10;;;1.70;;
16484;SDS011;8353;47.856;12.344;2023-03-31T15:53:18;1.73;;;1.37;;
16484;SDS011;8353;47.856;12.344;2023-03-31T15:56:27;1.70;;;1.10;;
16484;SDS011;8353;47.856;12.344;2023-03-31T15:59:20;3.57;;;1.60;;
16484;SDS011;8353;47.856;12.344;2023-03-31T16:02:10;2.47;;;1.40;;
16484;SDS011;8353;47.856;12.344;2023-03-31T16:04:58;1.60;;;1.30;;
16484;SDS011;8353;47.856;12.344;2023-03-31T16:07:48;4.37;;;1.30;;
16484;SDS011;8353;47.856;12.344;2023-03-31T16:10:35;2.97;;;1.47;;
16484;SDS011;8353;47.856;12.344;2023-03-31T16:13:23;1.83;;;1.10;;
16484;SDS011;8353;47.856;12.344;2023-03-31T16:16:16;1.73;;;1.33;;
16484;SDS011;8353;47.856;12.344;2023-03-31T16:19:05;1.83;;;1.43;;
16484;SDS011;8353;47.856;12.344;2023-03-31T16:21:54;1.40;;;1.30;;
16484;SDS011;8353;47.856;12.344;2023-03-31T16:24:46;1.30;;;1.10;;
16484;SDS011;8353;47.856;12.344;2023-03-31T16:27:36;1.10;;;1.00;;
16484;SDS011;8353;47.856;12.344;2023-03-31T16:30:33;1.67;;;1.10;;
16484;SDS011;8353;47.856;12.344;2023-03-31T16:33:21;1.97;;;1.00;;
16484;SDS011;8353;47.856;12.344;2023-03-31T16:36:08;1.40;;;1.30;;
16484;SDS011;8353;47.856;12.344;2023-03-31T16:39:00;1.53;;;1.10;;
16484;SDS011;8353;47.856;12.344;2023-03-31T16:41:51;1.87;;;1.10;;
16484;SDS011;8353;47.856;12.344;2023-03-31T16:44:38;2.53;;;1.47;;
16484;SDS011;8353;47.856;12.344;2023-03-31T16:47:26;2.33;;;1.53;;
16484;SDS011;8353;47.856;12.344;2023-03-31T16:50:12;2.60;;;1.70;;
16484;SDS011;8353;47.856;12.344;2023-03-31T16:52:59;1.33;;;1.17;;
16484;SDS011;8353;47.856;12.344;2023-03-31T16:55:47;3.43;;;1.60;;
16484;SDS011;8353;47.856;12.344;2023-03-31T16:58:34;1.33;;;1.23;;
16484;SDS011;8353;47.856;12.344;2023-03-31T17:01:24;1.60;;;1.40;;
16484;SDS011;8353;47.856;12.344;2023-03-31T17:04:12;2.30;;;1.20;;
16484;SDS011;8353;47.856;12.344;2023-03-31T17:06:59;4.63;;;1.93;;
16484;SDS011;8353;47.856;12.344;2023-03-31T17:09:46;2.43;;;1.50;;
16484;SDS011;8353;47.856;12.344;2023-03-31T17:12:33;1.93;;;1.27;;
16484;SDS011;8353;47.856;12.344;2023-03-31T17:15:20;2.53;;;1.20;;
16484;SDS011;8353;47.856;12.344;2023-03-31T17:18:08;2.83;;;1.43;;
16484;SDS011;8353;47.856;12.344;2023-03-31T17:21:02;2.00;;;1.60;;
16484;SDS011;8353;47.856;12.344;2023-03-31T17:23:50;1.93;;;1.50;;
16484;SDS011;8353;47.856;12.344;2023-03-31T17:26:37;1.57;;;1.40;;
16484;SDS011;8353;47.856;12.344;2023-03-31T17:29:24;4.50;;;2.63;;